sensor_id;sensor_type;location;lat;lon;timestamp;P1;durP1;ratioP1;P2;durP2;ratioP2
20535;SDS011;10426;49.420;8.390;2023-02-28T00:00:48;2.38;;;2.08;;
20535;SDS011;10426;49.420;8.390;2023-02-28T00:03:15;1.95;;;1.85;;
20535;SDS011;10426;49.420;8.390;2023-02-28T00:05:43;2.00;;;1.90;;
20535;SDS011;10426;49.420;8.390;2023-02-28T00:08:10;1.90;;;1.80;;
20535;SDS011;10426;49.420;8.390;2023-02-28T00:10:37;2.47;;;2.00;;
20535;SDS011;10426;49.420;8.390;2023-02-28T00:13:04;1.80;;;1.70;;
20535;SDS011;10426;49.420;8.390;2023-02-28T00:15:32;5.63;;;1.83;;
20535;SDS011;10426;49.420;8.390;2023-02-28T00:17:58;1.90;;;1.80;;
20535;SDS011;10426;49.420;8.390;2023-02-28T00:20:25;1.85;;;1.75;;
20535;SDS011;10426;49.420;8.390;2023-02-28T00:22:53;1.90;;;1.80;;
20535;SDS011;10426;49.420;8.390;2023-02-28T00:25:20;2.00;;;1.90;;
20535;SDS011;10426;49.420;8.390;2023-02-28T00:27:47;2.08;;;1.98;;
20535;SDS011;10426;49.420;8.390;2023-02-28T00:30:15;2.00;;;1.90;;
20535;SDS011;10426;49.420;8.390;2023-02-28T00:32:42;2.03;;;1.83;;
20535;SDS011;10426;49.420;8.390;2023-02-28T00:35:09;1.95;;;1.85;;
20535;SDS011;10426;49.420;8.390;2023-02-28T00:37:36;1.90;;;1.80;;
20535;SDS011;10426;49.420;8.390;2023-02-28T00:40:04;2.17;;;1.97;;
20535;SDS011;10426;49.420;8.390;2023-02-28T00:42:31;2.08;;;1.90;;
20535;SDS011;10426;49.420;8.390;2023-02-28T00:44:58;2.00;;;1.90;;
20535;SDS011;10426;49.420;8.390;2023-02-28T00:47:25;2.85;;;1.90;;
20535;SDS011;10426;49.420;8.390;2023-02-28T00:49:51;2.10;;;2.00;;
20535;SDS011;10426;49.420;8.390;2023-02-28T00:52:18;2.57;;;2.13;;
20535;SDS011;10426;49.420;8.390;2023-02-28T00:54:45;2.10;;;2.00;;
20535;SDS011;10426;49.420;8.390;2023-02-28T00:57:13;2.15;;;2.05;;
20535;SDS011;10426;49.420;8.390;2023-02-28T00:59:39;2.10;;;2.00;;
20535;SDS011;10426;49.420;8.390;2023-02-28T01:02:06;2.40;;;2.20;;
20535;SDS011;10426;49.420;8.390;2023-02-28T01:04:32;2.17;;;1.98;;
20535;SDS011;10426;49.420;8.390;2023-02-28T01:06:59;2.03;;;1.92;;
20535;SDS011;10426;49.420;8.390;2023-02-28T01:09:26;2.58;;;1.90;;
20535;SDS011;10426;49.420;8.390;2023-02-28T01:11:52;2.13;;;2.00;;
20535;SDS011;10426;49.420;8.390;2023-02-28T01:14:20;2.00;;;1.90;;
20535;SDS011;10426;49.420;8.390;2023-02-28T01:16:47;2.20;;;2.10;;
20535;SDS011;10426;49.420;8.390;2023-02-28T01:19:14;2.00;;;1.90;;
20535;SDS011;10426;49.420;8.390;2023-02-28T01:21:40;2.10;;;2.00;;
20535;SDS011;10426;49.420;8.390;2023-02-28T01:24:07;2.17;;;2.08;;
20535;SDS011;10426;49.420;8.390;2023-02-28T01:26:33;2.30;;;2.08;;
20535;SDS011;10426;49.420;8.390;2023-02-28T01:29:00;2.10;;;2.00;;
20535;SDS011;10426;49.420;8.390;2023-02-28T01:31:28;2.17;;;2.08;;
20535;SDS011;10426;49.420;8.390;2023-02-28T01:33:55;2.00;;;1.90;;
20535;SDS011;10426;49.420;8.390;2023-02-28T01:36:22;2.20;;;2.10;;
20535;SDS011;10426;49.420;8.390;2023-02-28T01:38:49;2.10;;;2.00;;
20535;SDS011;10426;49.420;8.390;2023-02-28T01:41:18;2.30;;;2.10;;
20535;SDS011;10426;49.420;8.390;2023-02-28T01:43:56;2.30;;;2.20;;
20535;SDS011;10426;49.420;8.390;2023-02-28T01:46:23;2.40;;;2.20;;
20535;SDS011;10426;49.420;8.390;2023-02-28T01:48:51;2.17;;;2.08;;
20535;SDS011;10426;49.420;8.390;2023-02-28T01:51:20;2.15;;;2.05;;
20535;SDS011;10426;49.420;8.390;2023-02-28T01:53:49;2.58;;;2.25;;
20535;SDS011;10426;49.420;8.390;2023-02-28T01:56:17;2.60;;;2.40;;
20535;SDS011;10426;49.420;8.390;2023-02-28T01:58:46;2.60;;;2.40;;
20535;SDS011;10426;49.420;8.390;2023-02-28T02:01:13;2.42;;;2.33;;
20535;SDS011;10426;49.420;8.390;2023-02-28T02:03:46;2.87;;;2.37;;
20535;SDS011;10426;49.420;8.390;2023-02-28T02:06:14;2.53;;;2.38;;
20535;SDS011;10426;49.420;8.390;2023-02-28T02:08:41;2.75;;;2.53;;
20535;SDS011;10426;49.420;8.390;2023-02-28T02:11:08;3.20;;;2.50;;
20535;SDS011;10426;49.420;8.390;2023-02-28T02:13:44;2.67;;;2.47;;
20535;SDS011;10426;49.420;8.390;2023-02-28T02:16:19;2.70;;;2.50;;
20535;SDS011;10426;49.420;8.390;2023-02-28T02:18:50;2.67;;;2.47;;
20535;SDS011;10426;49.420;8.390;2023-02-28T02:26:49;2.90;;;2.70;;
20535;SDS011;10426;49.420;8.390;2023-02-28T02:29:22;2.78;;;2.58;;
20535;SDS011;10426;49.420;8.390;2023-02-28T02:32:02;2.50;;;2.30;;
20535;SDS011;10426;49.420;8.390;2023-02-28T02:34:53;2.83;;;2.63;;
20535;SDS011;10426;49.420;8.390;2023-02-28T02:37:27;2.80;;;2.60;;
20535;SDS011;10426;49.420;8.390;2023-02-28T02:39:59;2.77;;;2.57;;
20535;SDS011;10426;49.420;8.390;2023-02-28T02:42:27;2.72;;;2.63;;
20535;SDS011;10426;49.420;8.390;2023-02-28T02:44:56;2.70;;;2.50;;
20535;SDS011;10426;49.420;8.390;2023-02-28T02:47:26;2.87;;;2.60;;
20535;SDS011;10426;49.420;8.390;2023-02-28T02:49:55;2.80;;;2.60;;
20535;SDS011;10426;49.420;8.390;2023-02-28T02:52:24;2.92;;;2.72;;
20535;SDS011;10426;49.420;8.390;2023-02-28T02:54:52;3.28;;;2.67;;
20535;SDS011;10426;49.420;8.390;2023-02-28T02:57:24;2.77;;;2.67;;
20535;SDS011;10426;49.420;8.390;2023-02-28T02:59:52;2.73;;;2.53;;
20535;SDS011;10426;49.420;8.390;2023-02-28T03:02:20;2.88;;;2.67;;
20535;SDS011;10426;49.420;8.390;2023-02-28T03:04:48;3.10;;;2.80;;
20535;SDS011;10426;49.420;8.390;2023-02-28T03:07:18;3.00;;;2.70;;
20535;SDS011;10426;49.420;8.390;2023-02-28T03:09:49;3.27;;;2.97;;
20535;SDS011;10426;49.420;8.390;2023-02-28T03:12:16;3.05;;;2.80;;
20535;SDS011;10426;49.420;8.390;2023-02-28T03:14:46;2.90;;;2.70;;
20535;SDS011;10426;49.420;8.390;2023-02-28T03:20:15;3.28;;;2.97;;
20535;SDS011;10426;49.420;8.390;2023-02-28T03:22:50;3.20;;;3.00;;
20535;SDS011;10426;49.420;8.390;2023-02-28T03:25:20;3.67;;;3.38;;
20535;SDS011;10426;49.420;8.390;2023-02-28T03:27:49;3.30;;;3.10;;
20535;SDS011;10426;49.420;8.390;2023-02-28T03:30:23;3.30;;;3.00;;
20535;SDS011;10426;49.420;8.390;2023-02-28T03:32:53;3.03;;;2.80;;
20535;SDS011;10426;49.420;8.390;2023-02-28T03:35:22;3.00;;;2.80;;
20535;SDS011;10426;49.420;8.390;2023-02-28T03:37:52;3.00;;;2.80;;
20535;SDS011;10426;49.420;8.390;2023-02-28T03:40:20;3.00;;;2.80;;
20535;SDS011;10426;49.420;8.390;2023-02-28T03:42:48;3.25;;;3.00;;
20535;SDS011;10426;49.420;8.390;2023-02-28T03:45:16;3.15;;;2.95;;
20535;SDS011;10426;49.420;8.390;2023-02-28T03:47:45;3.40;;;3.13;;
20535;SDS011;10426;49.420;8.390;2023-02-28T03:50:14;3.13;;;2.92;;
20535;SDS011;10426;49.420;8.390;2023-02-28T03:52:44;5.10;;;3.25;;
20535;SDS011;10426;49.420;8.390;2023-02-28T03:55:13;3.33;;;3.13;;
20535;SDS011;10426;49.420;8.390;2023-02-28T03:57:43;3.38;;;3.05;;
20535;SDS011;10426;49.420;8.390;2023-02-28T04:00:15;3.63;;;3.33;;
20535;SDS011;10426;49.420;8.390;2023-02-28T04:02:43;3.92;;;3.40;;
20535;SDS011;10426;49.420;8.390;2023-02-28T04:05:10;4.10;;;3.80;;
20535;SDS011;10426;49.420;8.390;2023-02-28T04:07:37;4.50;;;3.45;;
20535;SDS011;10426;49.420;8.390;2023-02-28T04:10:04;4.07;;;3.77;;
20535;SDS011;10426;49.420;8.390;2023-02-28T04:12:32;4.00;;;3.70;;
20535;SDS011;10426;49.420;8.390;2023-02-28T04:14:59;4.22;;;3.80;;
20535;SDS011;10426;49.420;8.390;2023-02-28T04:17:25;3.70;;;3.38;;
20535;SDS011;10426;49.420;8.390;2023-02-28T04:19:52;3.92;;;3.53;;
20535;SDS011;10426;49.420;8.390;2023-02-28T04:22:19;4.80;;;3.75;;
20535;SDS011;10426;49.420;8.390;2023-02-28T04:24:45;4.38;;;3.55;;
20535;SDS011;10426;49.420;8.390;2023-02-28T04:27:12;3.80;;;3.50;;
20535;SDS011;10426;49.420;8.390;2023-02-28T04:29:42;3.88;;;3.58;;
20535;SDS011;10426;49.420;8.390;2023-02-28T04:32:09;3.72;;;3.42;;
20535;SDS011;10426;49.420;8.390;2023-02-28T04:34:36;4.22;;;3.50;;
20535;SDS011;10426;49.420;8.390;2023-02-28T04:37:04;4.22;;;3.92;;
20535;SDS011;10426;49.420;8.390;2023-02-28T04:39:34;4.00;;;3.60;;
20535;SDS011;10426;49.420;8.390;2023-02-28T04:42:01;4.07;;;3.73;;
20535;SDS011;10426;49.420;8.390;2023-02-28T04:44:27;9.77;;;4.30;;
20535;SDS011;10426;49.420;8.390;2023-02-28T04:46:55;5.63;;;3.70;;
20535;SDS011;10426;49.420;8.390;2023-02-28T04:49:22;4.28;;;3.88;;
20535;SDS011;10426;49.420;8.390;2023-02-28T04:51:49;4.30;;;3.85;;
20535;SDS011;10426;49.420;8.390;2023-02-28T04:54:15;5.00;;;3.80;;
20535;SDS011;10426;49.420;8.390;2023-02-28T04:56:43;5.10;;;4.20;;
20535;SDS011;10426;49.420;8.390;2023-02-28T04:59:09;4.57;;;4.10;;
20535;SDS011;10426;49.420;8.390;2023-02-28T05:01:36;4.25;;;3.90;;
20535;SDS011;10426;49.420;8.390;2023-02-28T05:04:04;4.95;;;3.90;;
20535;SDS011;10426;49.420;8.390;2023-02-28T05:06:31;5.63;;;4.03;;
20535;SDS011;10426;49.420;8.390;2023-02-28T05:08:58;4.57;;;3.90;;
20535;SDS011;10426;49.420;8.390;2023-02-28T05:11:26;4.32;;;3.60;;
20535;SDS011;10426;49.420;8.390;2023-02-28T05:13:54;4.57;;;3.72;;
20535;SDS011;10426;49.420;8.390;2023-02-28T05:16:21;3.78;;;3.47;;
20535;SDS011;10426;49.420;8.390;2023-02-28T05:18:48;4.90;;;3.60;;
20535;SDS011;10426;49.420;8.390;2023-02-28T05:21:22;5.43;;;3.90;;
20535;SDS011;10426;49.420;8.390;2023-02-28T05:23:50;4.50;;;3.90;;
20535;SDS011;10426;49.420;8.390;2023-02-28T05:26:17;3.70;;;3.40;;
20535;SDS011;10426;49.420;8.390;2023-02-28T05:28:43;3.78;;;3.47;;
20535;SDS011;10426;49.420;8.390;2023-02-28T05:31:10;3.75;;;3.35;;
20535;SDS011;10426;49.420;8.390;2023-02-28T05:33:37;3.55;;;3.25;;
20535;SDS011;10426;49.420;8.390;2023-02-28T05:36:04;3.50;;;3.20;;
20535;SDS011;10426;49.420;8.390;2023-02-28T05:38:32;3.53;;;3.22;;
20535;SDS011;10426;49.420;8.390;2023-02-28T05:40:58;5.75;;;3.40;;
20535;SDS011;10426;49.420;8.390;2023-02-28T05:43:25;3.53;;;3.22;;
20535;SDS011;10426;49.420;8.390;2023-02-28T05:45:51;3.65;;;3.38;;
20535;SDS011;10426;49.420;8.390;2023-02-28T05:48:18;3.40;;;3.20;;
20535;SDS011;10426;49.420;8.390;2023-02-28T05:50:45;3.33;;;3.13;;
20535;SDS011;10426;49.420;8.390;2023-02-28T05:53:12;3.55;;;3.28;;
20535;SDS011;10426;49.420;8.390;2023-02-28T05:55:40;4.53;;;3.70;;
20535;SDS011;10426;49.420;8.390;2023-02-28T05:58:07;3.47;;;3.28;;
20535;SDS011;10426;49.420;8.390;2023-02-28T06:00:34;3.55;;;3.30;;
20535;SDS011;10426;49.420;8.390;2023-02-28T06:03:01;3.13;;;2.93;;
20535;SDS011;10426;49.420;8.390;2023-02-28T06:05:27;3.28;;;3.00;;
20535;SDS011;10426;49.420;8.390;2023-02-28T06:07:54;3.28;;;3.08;;
20535;SDS011;10426;49.420;8.390;2023-02-28T06:10:21;3.30;;;3.10;;
20535;SDS011;10426;49.420;8.390;2023-02-28T06:12:49;3.72;;;3.25;;
20535;SDS011;10426;49.420;8.390;2023-02-28T06:15:16;3.47;;;3.17;;
20535;SDS011;10426;49.420;8.390;2023-02-28T06:17:43;3.80;;;3.50;;
20535;SDS011;10426;49.420;8.390;2023-02-28T06:20:10;3.40;;;3.20;;
20535;SDS011;10426;49.420;8.390;2023-02-28T06:22:38;3.50;;;3.20;;
20535;SDS011;10426;49.420;8.390;2023-02-28T06:25:05;3.72;;;3.45;;
20535;SDS011;10426;49.420;8.390;2023-02-28T06:27:32;3.80;;;3.50;;
20535;SDS011;10426;49.420;8.390;2023-02-28T06:30:00;3.60;;;3.30;;
20535;SDS011;10426;49.420;8.390;2023-02-28T06:32:27;4.90;;;4.50;;
20535;SDS011;10426;49.420;8.390;2023-02-28T06:34:53;4.60;;;4.10;;
20535;SDS011;10426;49.420;8.390;2023-02-28T06:37:22;4.63;;;3.78;;
20535;SDS011;10426;49.420;8.390;2023-02-28T06:39:51;3.53;;;3.33;;
20535;SDS011;10426;49.420;8.390;2023-02-28T06:42:18;4.00;;;3.70;;
20535;SDS011;10426;49.420;8.390;2023-02-28T06:44:45;5.50;;;3.50;;
20535;SDS011;10426;49.420;8.390;2023-02-28T06:47:13;3.50;;;3.20;;
20535;SDS011;10426;49.420;8.390;2023-02-28T06:49:39;4.60;;;3.33;;
20535;SDS011;10426;49.420;8.390;2023-02-28T06:52:06;3.75;;;3.33;;
20535;SDS011;10426;49.420;8.390;2023-02-28T06:54:34;4.32;;;3.55;;
20535;SDS011;10426;49.420;8.390;2023-02-28T06:57:00;3.57;;;3.27;;
20535;SDS011;10426;49.420;8.390;2023-02-28T06:59:27;3.60;;;3.30;;
20535;SDS011;10426;49.420;8.390;2023-02-28T07:01:53;3.97;;;3.60;;
20535;SDS011;10426;49.420;8.390;2023-02-28T07:04:22;3.65;;;3.35;;
20535;SDS011;10426;49.420;8.390;2023-02-28T07:06:49;4.10;;;3.80;;
20535;SDS011;10426;49.420;8.390;2023-02-28T07:09:16;3.90;;;3.60;;
20535;SDS011;10426;49.420;8.390;2023-02-28T07:11:42;3.63;;;3.42;;
20535;SDS011;10426;49.420;8.390;2023-02-28T07:14:09;3.92;;;3.60;;
20535;SDS011;10426;49.420;8.390;2023-02-28T07:16:35;4.38;;;4.07;;
20535;SDS011;10426;49.420;8.390;2023-02-28T07:19:02;4.35;;;3.95;;
20535;SDS011;10426;49.420;8.390;2023-02-28T07:21:30;5.10;;;3.80;;
20535;SDS011;10426;49.420;8.390;2023-02-28T07:23:57;4.10;;;3.80;;
20535;SDS011;10426;49.420;8.390;2023-02-28T07:26:23;4.40;;;4.10;;
20535;SDS011;10426;49.420;8.390;2023-02-28T07:28:50;4.45;;;4.03;;
20535;SDS011;10426;49.420;8.390;2023-02-28T07:31:18;4.40;;;4.00;;
20535;SDS011;10426;49.420;8.390;2023-02-28T07:33:44;5.97;;;3.95;;
20535;SDS011;10426;49.420;8.390;2023-02-28T07:36:12;5.10;;;4.00;;
20535;SDS011;10426;49.420;8.390;2023-02-28T07:38:43;4.10;;;3.80;;
20535;SDS011;10426;49.420;8.390;2023-02-28T07:41:10;4.32;;;4.03;;
20535;SDS011;10426;49.420;8.390;2023-02-28T07:43:36;5.32;;;4.10;;
20535;SDS011;10426;49.420;8.390;2023-02-28T07:46:04;5.05;;;4.00;;
20535;SDS011;10426;49.420;8.390;2023-02-28T07:48:31;4.50;;;4.10;;
20535;SDS011;10426;49.420;8.390;2023-02-28T07:50:57;4.30;;;3.97;;
20535;SDS011;10426;49.420;8.390;2023-02-28T07:53:24;4.68;;;4.28;;
20535;SDS011;10426;49.420;8.390;2023-02-28T07:55:55;4.70;;;4.13;;
20535;SDS011;10426;49.420;8.390;2023-02-28T07:58:22;5.53;;;4.00;;
20535;SDS011;10426;49.420;8.390;2023-02-28T08:00:48;4.50;;;4.07;;
20535;SDS011;10426;49.420;8.390;2023-02-28T08:03:15;5.13;;;4.60;;
20535;SDS011;10426;49.420;8.390;2023-02-28T08:05:42;4.50;;;4.20;;
20535;SDS011;10426;49.420;8.390;2023-02-28T08:08:08;5.00;;;4.50;;
20535;SDS011;10426;49.420;8.390;2023-02-28T08:10:35;5.10;;;4.35;;
20535;SDS011;10426;49.420;8.390;2023-02-28T08:13:03;6.27;;;4.70;;
20535;SDS011;10426;49.420;8.390;2023-02-28T08:15:29;4.10;;;3.80;;
20535;SDS011;10426;49.420;8.390;2023-02-28T08:17:56;4.47;;;4.07;;
20535;SDS011;10426;49.420;8.390;2023-02-28T08:20:23;4.43;;;4.03;;
20535;SDS011;10426;49.420;8.390;2023-02-28T08:22:49;4.65;;;4.22;;
20535;SDS011;10426;49.420;8.390;2023-02-28T08:25:16;4.65;;;4.35;;
20535;SDS011;10426;49.420;8.390;2023-02-28T08:27:43;5.15;;;4.30;;
20535;SDS011;10426;49.420;8.390;2023-02-28T08:30:12;4.82;;;4.32;;
20535;SDS011;10426;49.420;8.390;2023-02-28T08:32:39;5.28;;;4.40;;
20535;SDS011;10426;49.420;8.390;2023-02-28T08:35:06;5.00;;;4.60;;
20535;SDS011;10426;49.420;8.390;2023-02-28T08:37:34;4.88;;;4.43;;
20535;SDS011;10426;49.420;8.390;2023-02-28T08:40:01;4.60;;;4.20;;
20535;SDS011;10426;49.420;8.390;2023-02-28T08:42:29;5.32;;;4.50;;
20535;SDS011;10426;49.420;8.390;2023-02-28T08:44:56;4.60;;;4.30;;
20535;SDS011;10426;49.420;8.390;2023-02-28T08:47:24;5.03;;;4.60;;
20535;SDS011;10426;49.420;8.390;2023-02-28T08:49:50;5.05;;;4.65;;
20535;SDS011;10426;49.420;8.390;2023-02-28T08:52:17;5.00;;;4.60;;
20535;SDS011;10426;49.420;8.390;2023-02-28T08:54:43;5.00;;;4.60;;
20535;SDS011;10426;49.420;8.390;2023-02-28T08:57:10;5.18;;;4.78;;
20535;SDS011;10426;49.420;8.390;2023-02-28T08:59:37;4.93;;;4.40;;
20535;SDS011;10426;49.420;8.390;2023-02-28T09:02:03;5.00;;;4.60;;
20535;SDS011;10426;49.420;8.390;2023-02-28T09:04:31;4.93;;;4.53;;
20535;SDS011;10426;49.420;8.390;2023-02-28T09:06:59;4.85;;;4.45;;
20535;SDS011;10426;49.420;8.390;2023-02-28T09:09:26;7.80;;;4.83;;
20535;SDS011;10426;49.420;8.390;2023-02-28T09:11:54;4.88;;;4.47;;
20535;SDS011;10426;49.420;8.390;2023-02-28T09:14:21;5.20;;;4.80;;
20535;SDS011;10426;49.420;8.390;2023-02-28T09:16:48;5.30;;;4.80;;
20535;SDS011;10426;49.420;8.390;2023-02-28T09:19:14;5.10;;;4.60;;
20535;SDS011;10426;49.420;8.390;2023-02-28T09:21:42;4.90;;;4.50;;
20535;SDS011;10426;49.420;8.390;2023-02-28T09:24:09;6.13;;;5.53;;
20535;SDS011;10426;49.420;8.390;2023-02-28T09:26:37;6.28;;;5.30;;
20535;SDS011;10426;49.420;8.390;2023-02-28T09:29:03;4.70;;;4.40;;
20535;SDS011;10426;49.420;8.390;2023-02-28T09:31:30;4.80;;;4.40;;
20535;SDS011;10426;49.420;8.390;2023-02-28T09:33:57;5.32;;;4.82;;
20535;SDS011;10426;49.420;8.390;2023-02-28T09:36:25;4.80;;;4.40;;
20535;SDS011;10426;49.420;8.390;2023-02-28T09:38:54;4.60;;;4.30;;
20535;SDS011;10426;49.420;8.390;2023-02-28T09:41:22;4.85;;;4.40;;
20535;SDS011;10426;49.420;8.390;2023-02-28T09:43:49;6.60;;;4.65;;
20535;SDS011;10426;49.420;8.390;2023-02-28T09:49:02;4.93;;;4.53;;
20535;SDS011;10426;49.420;8.390;2023-02-28T09:51:33;4.68;;;4.32;;
20535;SDS011;10426;49.420;8.390;2023-02-28T09:54:02;5.00;;;4.50;;
20535;SDS011;10426;49.420;8.390;2023-02-28T09:56:31;5.07;;;4.65;;
20535;SDS011;10426;49.420;8.390;2023-02-28T09:58:58;5.10;;;4.47;;
20535;SDS011;10426;49.420;8.390;2023-02-28T10:01:28;4.40;;;4.10;;
20535;SDS011;10426;49.420;8.390;2023-02-28T10:03:59;4.55;;;4.15;;
20535;SDS011;10426;49.420;8.390;2023-02-28T10:06:28;4.80;;;4.40;;
20535;SDS011;10426;49.420;8.390;2023-02-28T10:08:56;5.17;;;4.70;;
20535;SDS011;10426;49.420;8.390;2023-02-28T10:11:25;5.10;;;4.60;;
20535;SDS011;10426;49.420;8.390;2023-02-28T10:13:53;5.32;;;4.82;;
20535;SDS011;10426;49.420;8.390;2023-02-28T10:16:25;5.40;;;4.90;;
20535;SDS011;10426;49.420;8.390;2023-02-28T10:18:54;5.57;;;5.07;;
20535;SDS011;10426;49.420;8.390;2023-02-28T10:21:24;4.97;;;4.60;;
20535;SDS011;10426;49.420;8.390;2023-02-28T10:23:53;4.72;;;4.35;;
20535;SDS011;10426;49.420;8.390;2023-02-28T10:26:22;4.70;;;4.30;;
20535;SDS011;10426;49.420;8.390;2023-02-28T10:28:51;4.87;;;4.47;;
20535;SDS011;10426;49.420;8.390;2023-02-28T10:31:19;4.57;;;4.17;;
20535;SDS011;10426;49.420;8.390;2023-02-28T10:33:46;4.80;;;4.43;;
20535;SDS011;10426;49.420;8.390;2023-02-28T10:36:14;4.85;;;4.35;;
20535;SDS011;10426;49.420;8.390;2023-02-28T10:38:42;4.43;;;4.10;;
20535;SDS011;10426;49.420;8.390;2023-02-28T10:41:09;4.75;;;4.45;;
20535;SDS011;10426;49.420;8.390;2023-02-28T10:43:37;4.93;;;4.63;;
20535;SDS011;10426;49.420;8.390;2023-02-28T10:46:09;4.90;;;4.50;;
20535;SDS011;10426;49.420;8.390;2023-02-28T10:48:40;4.97;;;4.57;;
20535;SDS011;10426;49.420;8.390;2023-02-28T10:51:08;5.00;;;4.60;;
20535;SDS011;10426;49.420;8.390;2023-02-28T10:53:46;5.10;;;4.60;;
20535;SDS011;10426;49.420;8.390;2023-02-28T10:56:15;4.73;;;4.33;;
20535;SDS011;10426;49.420;8.390;2023-02-28T10:58:46;4.95;;;4.60;;
20535;SDS011;10426;49.420;8.390;2023-02-28T11:01:15;5.53;;;4.57;;
20535;SDS011;10426;49.420;8.390;2023-02-28T11:03:42;4.65;;;4.25;;
20535;SDS011;10426;49.420;8.390;2023-02-28T11:06:13;5.25;;;4.85;;
20535;SDS011;10426;49.420;8.390;2023-02-28T11:08:47;4.75;;;4.35;;
20535;SDS011;10426;49.420;8.390;2023-02-28T11:11:14;5.07;;;4.57;;
20535;SDS011;10426;49.420;8.390;2023-02-28T11:13:44;5.00;;;4.60;;
20535;SDS011;10426;49.420;8.390;2023-02-28T11:16:12;5.80;;;5.28;;
20535;SDS011;10426;49.420;8.390;2023-02-28T11:18:42;4.88;;;4.50;;
20535;SDS011;10426;49.420;8.390;2023-02-28T11:21:15;4.60;;;4.20;;
20535;SDS011;10426;49.420;8.390;2023-02-28T11:23:42;4.80;;;4.40;;
20535;SDS011;10426;49.420;8.390;2023-02-28T11:26:09;5.10;;;4.70;;
20535;SDS011;10426;49.420;8.390;2023-02-28T11:28:37;5.88;;;4.32;;
20535;SDS011;10426;49.420;8.390;2023-02-28T11:31:05;4.38;;;4.07;;
20535;SDS011;10426;49.420;8.390;2023-02-28T11:33:37;4.38;;;4.07;;
20535;SDS011;10426;49.420;8.390;2023-02-28T11:36:10;5.00;;;4.60;;
20535;SDS011;10426;49.420;8.390;2023-02-28T11:38:37;4.72;;;4.35;;
20535;SDS011;10426;49.420;8.390;2023-02-28T11:41:14;4.78;;;4.40;;
20535;SDS011;10426;49.420;8.390;2023-02-28T11:43:50;4.90;;;4.50;;
20535;SDS011;10426;49.420;8.390;2023-02-28T11:46:24;4.80;;;4.40;;
20535;SDS011;10426;49.420;8.390;2023-02-28T11:48:54;5.03;;;4.53;;
20535;SDS011;10426;49.420;8.390;2023-02-28T11:51:28;5.20;;;4.70;;
20535;SDS011;10426;49.420;8.390;2023-02-28T11:56:41;5.07;;;4.68;;
20535;SDS011;10426;49.420;8.390;2023-02-28T11:59:17;5.23;;;4.83;;
20535;SDS011;10426;49.420;8.390;2023-02-28T12:01:57;5.10;;;4.70;;
20535;SDS011;10426;49.420;8.390;2023-02-28T12:04:29;5.07;;;4.68;;
20535;SDS011;10426;49.420;8.390;2023-02-28T12:07:03;5.28;;;4.88;;
20535;SDS011;10426;49.420;8.390;2023-02-28T12:09:37;5.22;;;4.85;;
20535;SDS011;10426;49.420;8.390;2023-02-28T12:12:08;5.00;;;4.70;;
20535;SDS011;10426;49.420;8.390;2023-02-28T12:17:30;5.63;;;5.13;;
20535;SDS011;10426;49.420;8.390;2023-02-28T12:20:02;7.25;;;4.88;;
20535;SDS011;10426;49.420;8.390;2023-02-28T12:22:36;5.55;;;5.10;;
20535;SDS011;10426;49.420;8.390;2023-02-28T12:25:20;5.32;;;4.93;;
20535;SDS011;10426;49.420;8.390;2023-02-28T12:27:48;5.73;;;5.13;;
20535;SDS011;10426;49.420;8.390;2023-02-28T12:30:16;5.00;;;4.60;;
20535;SDS011;10426;49.420;8.390;2023-02-28T12:32:44;5.43;;;4.93;;
20535;SDS011;10426;49.420;8.390;2023-02-28T12:35:13;5.55;;;5.15;;
20535;SDS011;10426;49.420;8.390;2023-02-28T12:37:43;6.97;;;4.80;;
20535;SDS011;10426;49.420;8.390;2023-02-28T12:40:13;5.35;;;4.90;;
20535;SDS011;10426;49.420;8.390;2023-02-28T12:42:42;5.10;;;4.70;;
20535;SDS011;10426;49.420;8.390;2023-02-28T12:45:12;5.35;;;4.95;;
20535;SDS011;10426;49.420;8.390;2023-02-28T12:47:40;5.38;;;4.93;;
20535;SDS011;10426;49.420;8.390;2023-02-28T12:50:09;5.40;;;5.00;;
20535;SDS011;10426;49.420;8.390;2023-02-28T12:52:39;5.10;;;4.70;;
20535;SDS011;10426;49.420;8.390;2023-02-28T12:55:11;5.78;;;4.78;;
20535;SDS011;10426;49.420;8.390;2023-02-28T12:57:40;5.47;;;4.97;;
20535;SDS011;10426;49.420;8.390;2023-02-28T13:00:10;5.20;;;4.80;;
20535;SDS011;10426;49.420;8.390;2023-02-28T13:05:24;4.95;;;4.55;;
20535;SDS011;10426;49.420;8.390;2023-02-28T13:08:11;5.25;;;4.50;;
20535;SDS011;10426;49.420;8.390;2023-02-28T13:10:44;5.47;;;4.87;;
20535;SDS011;10426;49.420;8.390;2023-02-28T13:13:17;5.57;;;5.17;;
20535;SDS011;10426;49.420;8.390;2023-02-28T13:15:57;5.65;;;5.10;;
20535;SDS011;10426;49.420;8.390;2023-02-28T13:18:29;5.30;;;4.90;;
20535;SDS011;10426;49.420;8.390;2023-02-28T13:20:56;6.03;;;5.10;;
20535;SDS011;10426;49.420;8.390;2023-02-28T13:23:36;5.70;;;5.22;;
20535;SDS011;10426;49.420;8.390;2023-02-28T13:26:06;5.97;;;5.47;;
20535;SDS011;10426;49.420;8.390;2023-02-28T13:31:14;5.93;;;5.43;;
20535;SDS011;10426;49.420;8.390;2023-02-28T13:36:26;5.80;;;5.22;;
20535;SDS011;10426;49.420;8.390;2023-02-28T13:38:54;5.57;;;5.13;;
20535;SDS011;10426;49.420;8.390;2023-02-28T13:44:12;5.80;;;5.20;;
20535;SDS011;10426;49.420;8.390;2023-02-28T13:49:23;6.03;;;5.50;;
20535;SDS011;10426;49.420;8.390;2023-02-28T13:51:51;5.93;;;5.43;;
20535;SDS011;10426;49.420;8.390;2023-02-28T13:54:21;5.75;;;5.35;;
20535;SDS011;10426;49.420;8.390;2023-02-28T13:56:52;5.40;;;5.00;;
20535;SDS011;10426;49.420;8.390;2023-02-28T13:59:26;5.35;;;4.95;;
20535;SDS011;10426;49.420;8.390;2023-02-28T14:02:03;5.43;;;5.03;;
20535;SDS011;10426;49.420;8.390;2023-02-28T14:07:26;5.35;;;4.85;;
20535;SDS011;10426;49.420;8.390;2023-02-28T14:09:56;5.63;;;5.22;;
20535;SDS011;10426;49.420;8.390;2023-02-28T14:17:51;5.72;;;5.30;;
20535;SDS011;10426;49.420;8.390;2023-02-28T14:20:18;6.63;;;6.03;;
20535;SDS011;10426;49.420;8.390;2023-02-28T14:22:50;5.50;;;5.10;;
20535;SDS011;10426;49.420;8.390;2023-02-28T14:25:22;5.73;;;5.23;;
20535;SDS011;10426;49.420;8.390;2023-02-28T14:27:50;12.15;;;11.07;;
20535;SDS011;10426;49.420;8.390;2023-02-28T14:33:16;6.87;;;5.20;;
20535;SDS011;10426;49.420;8.390;2023-02-28T14:35:56;11.43;;;10.48;;
20535;SDS011;10426;49.420;8.390;2023-02-28T14:38:25;6.60;;;6.07;;
20535;SDS011;10426;49.420;8.390;2023-02-28T14:40:54;5.90;;;5.50;;
20535;SDS011;10426;49.420;8.390;2023-02-28T14:43:22;5.93;;;5.32;;
20535;SDS011;10426;49.420;8.390;2023-02-28T14:45:49;5.90;;;5.43;;
20535;SDS011;10426;49.420;8.390;2023-02-28T14:48:18;6.23;;;5.27;;
20535;SDS011;10426;49.420;8.390;2023-02-28T14:50:48;6.35;;;5.88;;
20535;SDS011;10426;49.420;8.390;2023-02-28T14:53:15;7.60;;;6.90;;
20535;SDS011;10426;49.420;8.390;2023-02-28T14:55:44;7.57;;;6.90;;
20535;SDS011;10426;49.420;8.390;2023-02-28T14:58:20;7.63;;;6.93;;
20535;SDS011;10426;49.420;8.390;2023-02-28T15:00:48;6.82;;;6.25;;
20535;SDS011;10426;49.420;8.390;2023-02-28T15:03:19;7.55;;;6.75;;
20535;SDS011;10426;49.420;8.390;2023-02-28T15:05:51;6.03;;;5.43;;
20535;SDS011;10426;49.420;8.390;2023-02-28T15:08:17;6.68;;;6.10;;
20535;SDS011;10426;49.420;8.390;2023-02-28T15:10:45;6.28;;;5.60;;
20535;SDS011;10426;49.420;8.390;2023-02-28T15:13:13;5.40;;;4.93;;
20535;SDS011;10426;49.420;8.390;2023-02-28T15:15:42;5.40;;;5.00;;
20535;SDS011;10426;49.420;8.390;2023-02-28T15:18:10;5.30;;;5.00;;
20535;SDS011;10426;49.420;8.390;2023-02-28T15:20:39;5.70;;;5.20;;
20535;SDS011;10426;49.420;8.390;2023-02-28T15:23:07;5.85;;;5.40;;
20535;SDS011;10426;49.420;8.390;2023-02-28T15:25:34;5.70;;;5.30;;
20535;SDS011;10426;49.420;8.390;2023-02-28T15:28:01;6.33;;;5.73;;
20535;SDS011;10426;49.420;8.390;2023-02-28T15:30:28;6.05;;;5.47;;
20535;SDS011;10426;49.420;8.390;2023-02-28T15:33:02;6.15;;;5.65;;
20535;SDS011;10426;49.420;8.390;2023-02-28T15:35:30;6.40;;;5.80;;
20535;SDS011;10426;49.420;8.390;2023-02-28T15:38:00;6.30;;;5.80;;